Hervey City, Illinois
Current Conditions -  °F | °C
As of 2:54 AM on Sunday 26 Oct 2014 (Local Time) from KDEC Reporting Station
Clear Clear  
Wind Chill: 51°   Ceiling: Unl
Heat Index: 51°   Visibility: 10mi
Dew Point: 37°   Wind: 9mph
Humidity: 59%   Direction: 350°N
Pressure: 30.03"   Gusts: NA
Location:  39.7516°N, 88.8516°W
Report Text: KDEC 260754Z 35008KT 10SM CLR 11/03 A3003 RMK AO2 SLP167 T01060028
Loading
Personal Weather Stations






























Interactive Weather Map New forecast layout! Learn more

10-Day Weather Forecast

Advertisements
Track Severe Weather on mobile